createdAt,value
2019-02-24T00:02:21.701Z,99.90
2019-02-24T00:04:50.270Z,99.90
2019-02-24T00:07:18.826Z,99.90
2019-02-24T00:09:47.426Z,99.90
2019-02-24T00:12:15.979Z,99.90
2019-02-24T00:14:44.861Z,99.90
2019-02-24T00:17:13.429Z,99.90
2019-02-24T00:19:42.159Z,99.90
2019-02-24T00:22:10.758Z,99.90
2019-02-24T00:24:39.332Z,99.90
2019-02-24T00:27:07.909Z,99.90
2019-02-24T00:29:36.498Z,99.90
2019-02-24T00:32:05.060Z,99.90
2019-02-24T00:34:33.638Z,99.90
2019-02-24T00:37:02.220Z,99.90
2019-02-24T00:39:30.783Z,99.90
2019-02-24T00:41:59.370Z,99.90
2019-02-24T00:44:27.937Z,99.90
2019-02-24T00:46:56.515Z,99.90
2019-02-24T00:49:25.118Z,99.90
2019-02-24T00:51:53.677Z,99.90
2019-02-24T00:54:22.546Z,99.90
2019-02-24T00:56:51.099Z,99.90
2019-02-24T00:59:19.934Z,99.90
2019-02-24T01:01:48.526Z,99.90
2019-02-24T01:04:17.083Z,99.90
2019-02-24T01:06:45.759Z,99.90
2019-02-24T01:09:14.342Z,99.90
2019-02-24T01:11:42.899Z,99.90
2019-02-24T01:14:11.499Z,99.90
2019-02-24T01:16:40.978Z,99.90
2019-02-24T01:19:09.571Z,99.90
2019-02-24T01:21:38.271Z,99.90
2019-02-24T01:24:06.827Z,99.90
2019-02-24T01:26:35.359Z,99.90
2019-02-24T01:29:04.284Z,99.90
2019-02-24T01:31:32.854Z,99.90
2019-02-24T01:34:01.438Z,99.90
2019-02-24T01:36:30.030Z,99.90
2019-02-24T01:38:58.585Z,99.90
2019-02-24T01:41:27.097Z,99.90
2019-02-24T01:43:55.970Z,99.90
2019-02-24T01:46:24.549Z,99.90
2019-02-24T01:48:53.219Z,99.90
2019-02-24T01:51:21.775Z,99.90
2019-02-24T01:53:50.421Z,99.90
2019-02-24T01:56:18.998Z,99.90
2019-02-24T01:58:47.679Z,99.90
2019-02-24T02:01:16.570Z,99.90
2019-02-24T02:03:45.127Z,99.90
2019-02-24T02:06:13.715Z,99.90
2019-02-24T02:08:42.305Z,99.90
2019-02-24T02:11:10.917Z,99.90
2019-02-24T02:13:39.720Z,99.90
2019-02-24T02:16:08.342Z,99.90
2019-02-24T02:18:37.255Z,99.90
2019-02-24T02:21:05.834Z,99.90
2019-02-24T02:23:34.386Z,99.90
2019-02-24T02:26:02.985Z,99.90
2019-02-24T02:28:31.899Z,99.90
2019-02-24T02:31:00.472Z,99.90
2019-02-24T02:33:29.050Z,99.90
2019-02-24T02:35:57.622Z,99.90
2019-02-24T02:38:26.190Z,99.90
2019-02-24T02:40:54.794Z,99.90
2019-02-24T02:43:23.704Z,99.90
2019-02-24T02:45:52.271Z,99.90
2019-02-24T02:48:20.841Z,99.90
2019-02-24T02:50:49.443Z,99.90
2019-02-24T02:53:17.999Z,99.90
2019-02-24T02:55:46.601Z,99.90
2019-02-24T02:58:15.182Z,99.90
2019-02-24T03:00:43.899Z,99.90
2019-02-24T03:03:12.873Z,99.90
2019-02-24T03:05:43.083Z,99.90
2019-02-24T03:08:13.518Z,99.90
2019-02-24T03:10:42.126Z,99.90
2019-02-24T03:13:10.672Z,99.90
2019-02-24T03:15:39.258Z,99.90
2019-02-24T03:18:08.018Z,99.90
2019-02-24T03:20:36.570Z,99.90
2019-02-24T03:23:05.093Z,99.90
2019-02-24T03:25:33.650Z,99.90
2019-02-24T03:28:02.231Z,99.90
2019-02-24T03:30:30.826Z,99.90
2019-02-24T03:32:59.430Z,99.90
2019-02-24T03:35:28.343Z,99.90
2019-02-24T03:37:57.207Z,99.90
2019-02-24T03:40:25.794Z,99.90
2019-02-24T03:42:54.355Z,99.90
2019-02-24T03:45:23.042Z,99.90
2019-02-24T03:47:51.629Z,99.90
2019-02-24T03:50:20.202Z,99.90
2019-02-24T03:52:48.859Z,99.90
2019-02-24T03:55:17.432Z,99.90
2019-02-24T03:57:45.994Z,99.90
2019-02-24T04:00:14.977Z,99.90
2019-02-24T04:02:43.530Z,99.90
2019-02-24T04:05:12.109Z,99.90
2019-02-24T04:07:40.707Z,99.90
2019-02-24T04:10:09.340Z,99.90
2019-02-24T04:12:37.954Z,99.90
2019-02-24T04:15:06.690Z,99.90
2019-02-24T04:17:35.271Z,99.90
2019-02-24T04:20:04.422Z,99.90
2019-02-24T04:22:32.983Z,99.90
2019-02-24T04:25:01.569Z,99.90
2019-02-24T04:27:30.160Z,99.90
2019-02-24T04:29:59.070Z,99.90
2019-02-24T04:32:27.674Z,99.90
2019-02-24T04:34:56.308Z,99.90
2019-02-24T04:37:24.871Z,99.90
2019-02-24T04:39:53.825Z,99.90
2019-02-24T04:42:22.390Z,99.90
2019-02-24T04:44:50.985Z,99.90
2019-02-24T04:47:19.564Z,99.90
2019-02-24T04:49:48.139Z,99.90
2019-02-24T04:52:16.721Z,99.90
2019-02-24T04:54:45.290Z,99.90
2019-02-24T04:57:13.927Z,99.90
2019-02-24T04:59:42.533Z,99.90
2019-02-24T05:02:11.095Z,99.90
2019-02-24T05:04:39.700Z,99.90
2019-02-24T05:07:08.269Z,99.90
2019-02-24T05:09:36.841Z,99.90
2019-02-24T05:12:05.498Z,99.90
2019-02-24T05:14:34.059Z,99.90
2019-02-24T05:17:02.638Z,99.90
2019-02-24T05:19:31.213Z,99.90
2019-02-24T05:21:59.781Z,99.90
2019-02-24T05:24:28.361Z,99.90
2019-02-24T05:26:56.963Z,99.90
2019-02-24T05:29:25.534Z,99.90
2019-02-24T05:31:54.117Z,99.90
2019-02-24T05:34:22.667Z,99.90
2019-02-24T05:36:51.323Z,99.90
2019-02-24T05:39:19.947Z,99.90
2019-02-24T05:41:48.530Z,99.90
2019-02-24T05:44:17.115Z,99.90
2019-02-24T05:46:45.687Z,99.90
2019-02-24T05:49:14.253Z,99.90
2019-02-24T05:51:42.838Z,99.90
2019-02-24T05:54:11.419Z,99.90
2019-02-24T05:56:40.274Z,99.90
2019-02-24T05:59:08.852Z,99.90
2019-02-24T06:01:37.422Z,99.90
2019-02-24T06:04:06.020Z,99.90
2019-02-24T06:06:35.018Z,99.90
2019-02-24T06:09:04.543Z,99.90
2019-02-24T06:11:33.422Z,99.90
2019-02-24T06:14:02.027Z,99.90
2019-02-24T06:16:30.603Z,99.90
2019-02-24T06:18:59.178Z,99.90
2019-02-24T06:21:28.042Z,99.90
2019-02-24T06:23:56.617Z,99.90
2019-02-24T06:26:25.213Z,99.90
2019-02-24T06:28:53.935Z,99.90
2019-02-24T06:31:22.898Z,99.90
2019-02-24T06:33:51.446Z,99.90
2019-02-24T06:36:20.019Z,99.90
2019-02-24T06:38:48.615Z,99.90
2019-02-24T06:41:17.188Z,99.90
2019-02-24T06:43:45.787Z,99.90
2019-02-24T06:46:14.361Z,99.90
2019-02-24T06:48:42.931Z,99.90
2019-02-24T06:51:11.955Z,99.90
2019-02-24T06:53:40.528Z,99.90
2019-02-24T06:56:09.080Z,99.90
2019-02-24T06:58:37.657Z,99.90
2019-02-24T07:01:06.582Z,99.90
2019-02-24T07:03:35.101Z,99.90
2019-02-24T07:06:03.678Z,99.90
2019-02-24T07:08:32.255Z,99.90
2019-02-24T07:11:00.842Z,99.90
2019-02-24T07:13:29.400Z,99.90
2019-02-24T07:15:58.051Z,99.90
2019-02-24T07:18:26.732Z,99.90
2019-02-24T07:20:55.291Z,99.90
2019-02-24T07:23:23.866Z,99.90
2019-02-24T07:25:52.451Z,99.90
2019-02-24T07:28:20.999Z,99.90
2019-02-24T07:30:49.610Z,99.90
2019-02-24T07:33:18.163Z,99.90
2019-02-24T07:35:46.718Z,99.90
2019-02-24T07:38:15.309Z,99.90
2019-02-24T07:40:43.938Z,99.90
2019-02-24T07:43:12.536Z,99.90
2019-02-24T07:45:41.120Z,99.90
2019-02-24T07:48:09.677Z,99.90
2019-02-24T07:50:38.553Z,99.90
2019-02-24T07:53:07.526Z,99.90
2019-02-24T07:55:36.099Z,99.90
2019-02-24T07:58:04.762Z,99.90
2019-02-24T08:00:33.331Z,99.90
2019-02-24T08:03:02.022Z,99.90
2019-02-24T08:05:30.605Z,99.90
2019-02-24T08:07:59.149Z,99.90
2019-02-24T08:10:27.670Z,99.90
2019-02-24T08:12:56.239Z,99.90
2019-02-24T08:15:24.810Z,99.90
2019-02-24T08:17:53.380Z,99.90
2019-02-24T08:20:21.946Z,99.90
2019-02-24T08:22:50.445Z,99.90
2019-02-24T08:25:19.038Z,99.90
2019-02-24T08:27:47.587Z,99.90
2019-02-24T08:30:16.185Z,99.90
2019-02-24T08:32:45.050Z,99.90
2019-02-24T08:35:13.948Z,99.90
2019-02-24T08:37:42.542Z,99.90
2019-02-24T08:40:11.164Z,99.90
2019-02-24T08:42:39.758Z,99.90
2019-02-24T08:45:10.068Z,99.90
2019-02-24T08:47:38.626Z,99.90
2019-02-24T08:50:09.910Z,99.90
2019-02-24T08:52:38.501Z,99.90
2019-02-24T08:55:08.119Z,99.90
2019-02-24T08:57:36.683Z,99.90
2019-02-24T09:00:13.936Z,99.90
2019-02-24T09:02:42.515Z,99.90
2019-02-24T09:05:11.366Z,99.90
2019-02-24T09:07:39.872Z,99.90
2019-02-24T09:10:09.375Z,99.90
2019-02-24T09:12:37.991Z,99.90
2019-02-24T09:15:10.082Z,99.90
2019-02-24T09:17:38.991Z,99.90
2019-02-24T09:20:10.029Z,99.90
2019-02-24T09:22:38.640Z,99.90
2019-02-24T09:25:08.427Z,99.90
2019-02-24T09:27:37.163Z,99.90
2019-02-24T09:30:11.184Z,99.90
2019-02-24T09:32:39.757Z,99.90
2019-02-24T09:35:09.470Z,99.90
2019-02-24T09:37:38.107Z,99.90
2019-02-24T09:40:11.159Z,99.70
2019-02-24T09:42:40.070Z,99.90
2019-02-24T09:45:11.320Z,99.90
2019-02-24T09:47:46.835Z,99.90
2019-02-24T09:50:10.787Z,97.70
2019-02-24T09:52:39.394Z,95.90
2019-02-24T09:55:09.391Z,96.20
2019-02-24T09:57:37.978Z,96.30
2019-02-24T10:00:12.042Z,97.10
2019-02-24T10:02:40.915Z,98.20
2019-02-24T10:05:09.613Z,92.90
2019-02-24T10:07:38.202Z,86.60
2019-02-24T10:10:14.158Z,89.10
2019-02-24T10:12:42.749Z,85.20
2019-02-24T10:15:13.462Z,83.30
2019-02-24T10:17:42.103Z,82.70
2019-02-24T10:20:12.014Z,80.00
2019-02-24T10:22:40.589Z,79.60
2019-02-24T10:25:09.871Z,76.30
2019-02-24T10:27:38.581Z,80.00
2019-02-24T10:30:12.379Z,77.50
2019-02-24T10:32:41.058Z,77.60
2019-02-24T10:35:10.037Z,77.70
2019-02-24T10:37:38.582Z,82.70
2019-02-24T10:40:15.363Z,81.80
2019-02-24T10:42:44.076Z,81.00
2019-02-24T10:45:15.255Z,76.70
2019-02-24T10:47:43.853Z,80.90
2019-02-24T10:50:16.942Z,77.80
2019-02-24T10:52:45.463Z,75.40
2019-02-24T10:55:14.166Z,74.70
2019-02-24T10:57:42.804Z,77.80
2019-02-24T11:00:14.371Z,75.60
2019-02-24T11:02:43.007Z,71.70
2019-02-24T11:05:12.486Z,73.70
2019-02-24T11:07:41.453Z,76.40
2019-02-24T11:10:10.531Z,77.60
2019-02-24T11:12:39.702Z,72.20
2019-02-24T11:15:12.925Z,72.40
2019-02-24T11:17:41.536Z,73.70
2019-02-24T11:20:15.615Z,71.70
2019-02-24T11:22:44.250Z,71.70
2019-02-24T11:25:13.147Z,74.60
2019-02-24T11:27:41.806Z,69.90
2019-02-24T11:30:14.823Z,71.50
2019-02-24T11:32:43.398Z,70.40
2019-02-24T11:35:12.925Z,66.30
2019-02-24T11:37:41.631Z,64.60
2019-02-24T11:40:15.105Z,63.70
2019-02-24T11:42:43.679Z,64.80
2019-02-24T11:45:12.599Z,63.20
2019-02-24T11:47:41.177Z,63.80
2019-02-24T11:50:13.587Z,61.60
2019-02-24T11:52:42.228Z,59.60
2019-02-24T11:55:11.181Z,66.10
2019-02-24T11:57:39.895Z,64.70
2019-02-24T12:00:14.559Z,63.20
2019-02-24T12:02:43.173Z,60.90
2019-02-24T12:05:11.790Z,61.40
2019-02-24T12:07:40.382Z,64.10
2019-02-24T12:10:12.575Z,63.70
2019-02-24T12:12:41.236Z,64.30
2019-02-24T12:15:11.949Z,62.50
2019-02-24T12:17:40.489Z,63.70
2019-02-24T12:20:10.886Z,63.70
2019-02-24T12:22:39.610Z,64.50
2019-02-24T12:25:09.699Z,63.30
2019-02-24T12:27:38.689Z,61.70
2019-02-24T12:30:10.354Z,63.00
2019-02-24T12:32:39.017Z,65.50
2019-02-24T12:35:07.738Z,61.40
2019-02-24T12:37:36.294Z,61.90
2019-02-24T12:40:10.399Z,61.90
2019-02-24T12:42:39.091Z,64.70
2019-02-24T12:45:11.842Z,65.50
2019-02-24T12:47:40.576Z,63.00
2019-02-24T12:50:11.817Z,63.80
2019-02-24T12:52:40.390Z,63.50
2019-02-24T12:55:09.745Z,59.70
2019-02-24T12:57:38.527Z,56.40
2019-02-24T13:00:14.762Z,56.30
2019-02-24T13:02:43.371Z,57.50
2019-02-24T13:05:12.003Z,56.70
2019-02-24T13:07:40.594Z,58.80
2019-02-24T13:10:11.982Z,56.90
2019-02-24T13:12:40.569Z,56.30
2019-02-24T13:15:09.574Z,55.80
2019-02-24T13:17:38.286Z,56.40
2019-02-24T13:20:10.146Z,54.80
2019-02-24T13:22:39.214Z,57.20
2019-02-24T13:25:10.047Z,56.80
2019-02-24T13:27:38.756Z,54.40
2019-02-24T13:30:10.332Z,55.00
2019-02-24T13:32:38.990Z,55.10
2019-02-24T13:35:08.815Z,57.30
2019-02-24T13:37:37.354Z,55.00
2019-02-24T13:40:08.943Z,55.00
2019-02-24T13:42:37.502Z,54.70
2019-02-24T13:45:09.259Z,54.60
2019-02-24T13:47:37.904Z,54.70
2019-02-24T13:50:06.930Z,52.80
2019-02-24T13:52:35.669Z,53.10
2019-02-24T13:55:06.079Z,54.70
2019-02-24T13:57:34.631Z,55.00
2019-02-24T14:00:04.942Z,56.30
2019-02-24T14:02:33.494Z,52.30
2019-02-24T14:05:02.058Z,52.20
2019-02-24T14:07:30.921Z,52.00
2019-02-24T14:09:59.506Z,52.00
2019-02-24T14:12:28.059Z,55.70
2019-02-24T14:14:56.963Z,53.30
2019-02-24T14:17:25.533Z,53.10
2019-02-24T14:19:54.158Z,56.10
2019-02-24T14:22:22.742Z,57.90
2019-02-24T14:24:51.311Z,58.20
2019-02-24T14:27:19.943Z,59.20
2019-02-24T14:29:48.882Z,61.10
2019-02-24T14:32:17.755Z,60.10
2019-02-24T14:34:46.375Z,60.00
2019-02-24T14:37:14.966Z,61.80
2019-02-24T14:39:43.515Z,64.00
2019-02-24T14:42:12.106Z,66.00
2019-02-24T14:44:40.678Z,62.00
2019-02-24T14:47:09.235Z,65.40
2019-02-24T14:49:37.826Z,62.70
2019-02-24T14:52:06.395Z,63.50
2019-02-24T14:54:34.962Z,60.10
2019-02-24T14:57:03.533Z,60.20
2019-02-24T14:59:32.091Z,59.30
2019-02-24T15:02:00.661Z,60.10
2019-02-24T15:04:29.250Z,60.20
2019-02-24T15:06:57.799Z,60.80
2019-02-24T15:09:26.814Z,60.30
2019-02-24T15:11:55.688Z,62.00
2019-02-24T15:14:24.260Z,63.70
2019-02-24T15:16:52.906Z,66.30
2019-02-24T15:19:21.484Z,66.60
2019-02-24T15:21:50.074Z,67.20
2019-02-24T15:24:18.641Z,70.60
2019-02-24T15:26:47.198Z,74.50
2019-02-24T15:29:15.862Z,77.20
2019-02-24T15:31:44.434Z,79.10
2019-02-24T15:34:12.983Z,79.90
2019-02-24T15:36:41.935Z,83.10
2019-02-24T15:39:10.713Z,79.20
2019-02-24T15:41:39.285Z,80.30
2019-02-24T15:44:07.961Z,86.10
2019-02-24T15:46:36.868Z,90.60
2019-02-24T15:49:05.506Z,91.90
2019-02-24T15:51:34.086Z,91.90
2019-02-24T15:54:02.643Z,91.60
2019-02-24T15:56:31.218Z,92.40
2019-02-24T15:58:59.787Z,92.60
2019-02-24T16:01:28.705Z,92.90
2019-02-24T16:03:57.287Z,96.00
2019-02-24T16:06:25.843Z,97.20
2019-02-24T16:08:54.438Z,98.20
2019-02-24T16:11:23.031Z,98.80
2019-02-24T16:13:51.594Z,99.90
2019-02-24T16:16:20.093Z,99.90
2019-02-24T16:18:48.655Z,99.90
2019-02-24T16:21:17.257Z,99.90
2019-02-24T16:23:45.850Z,99.90
2019-02-24T16:26:14.427Z,99.90
2019-02-24T16:28:42.997Z,99.90
2019-02-24T16:31:11.554Z,99.90
2019-02-24T16:33:40.132Z,99.90
2019-02-24T16:36:09.046Z,99.90
2019-02-24T16:38:37.591Z,99.90
2019-02-24T16:41:06.183Z,99.90
2019-02-24T16:43:34.745Z,99.90
2019-02-24T16:46:03.302Z,99.90
2019-02-24T16:48:31.873Z,99.90
2019-02-24T16:51:00.432Z,99.90
2019-02-24T16:53:29.039Z,99.90
2019-02-24T16:55:57.628Z,99.90
2019-02-24T16:58:26.471Z,99.90
2019-02-24T17:00:56.503Z,99.90
2019-02-24T17:03:25.065Z,99.90
2019-02-24T17:05:53.954Z,99.90
2019-02-24T17:08:22.475Z,99.90
2019-02-24T17:10:51.030Z,99.90
2019-02-24T17:13:19.592Z,99.90
2019-02-24T17:15:48.166Z,99.90
2019-02-24T17:18:16.726Z,99.90
2019-02-24T17:20:45.377Z,99.90
2019-02-24T17:23:13.962Z,99.90
2019-02-24T17:25:42.519Z,99.90
2019-02-24T17:28:11.106Z,99.90
2019-02-24T17:30:39.663Z,99.90
2019-02-24T17:33:08.235Z,99.90
2019-02-24T17:35:36.966Z,99.90
2019-02-24T17:38:05.588Z,99.90
2019-02-24T17:40:34.179Z,99.90
2019-02-24T17:43:03.121Z,99.90
2019-02-24T17:45:31.674Z,99.90
2019-02-24T17:48:00.322Z,99.90
2019-02-24T17:50:28.892Z,99.90
2019-02-24T17:52:57.438Z,99.90
2019-02-24T17:55:25.955Z,99.90
2019-02-24T17:57:54.498Z,99.90
2019-02-24T18:00:28.595Z,99.90
2019-02-24T18:02:57.607Z,99.90
2019-02-24T18:05:26.336Z,99.90
2019-02-24T18:07:54.905Z,99.90
2019-02-24T18:10:23.618Z,99.90
2019-02-24T18:12:52.131Z,99.90
2019-02-24T18:15:20.711Z,99.90
2019-02-24T18:17:49.275Z,99.90
2019-02-24T18:20:19.491Z,99.90
2019-02-24T18:22:48.071Z,99.90
2019-02-24T18:25:16.712Z,99.90
2019-02-24T18:27:45.695Z,99.90
2019-02-24T18:30:25.531Z,99.90
2019-02-24T18:32:54.138Z,99.90
2019-02-24T18:35:22.789Z,99.90
2019-02-24T18:37:51.396Z,99.90
2019-02-24T18:40:20.050Z,99.90
2019-02-24T18:42:48.737Z,99.90
2019-02-24T18:45:17.458Z,99.90
2019-02-24T18:47:46.063Z,99.90
2019-02-24T18:50:16.266Z,99.90
2019-02-24T18:52:44.985Z,99.90
2019-02-24T18:55:14.023Z,99.90
2019-02-24T18:57:42.759Z,99.90
2019-02-24T19:00:22.087Z,99.90
2019-02-24T19:02:50.669Z,99.90
2019-02-24T19:05:19.281Z,99.90
2019-02-24T19:07:47.888Z,99.90
2019-02-24T19:10:21.686Z,99.90
2019-02-24T19:12:50.382Z,99.90
2019-02-24T19:15:20.506Z,99.90
2019-02-24T19:17:49.072Z,99.90
2019-02-24T19:20:21.838Z,99.90
2019-02-24T19:22:50.428Z,99.90
2019-02-24T19:25:19.336Z,99.90
2019-02-24T19:27:47.926Z,99.90
2019-02-24T19:30:20.544Z,99.90
2019-02-24T19:32:49.475Z,99.90
2019-02-24T19:35:19.086Z,99.90
2019-02-24T19:37:47.644Z,99.90
2019-02-24T19:40:18.733Z,99.90
2019-02-24T19:42:47.325Z,99.90
2019-02-24T19:45:18.091Z,99.90
2019-02-24T19:47:46.674Z,99.90
2019-02-24T19:50:19.253Z,99.90
2019-02-24T19:52:47.829Z,99.90
2019-02-24T19:55:17.648Z,99.90
2019-02-24T19:57:46.319Z,99.90
2019-02-24T20:00:22.459Z,99.90
2019-02-24T20:02:51.091Z,99.90
2019-02-24T20:05:20.594Z,99.90
2019-02-24T20:07:49.333Z,99.90
2019-02-24T20:10:21.039Z,99.90
2019-02-24T20:12:49.645Z,99.90
2019-02-24T20:15:18.845Z,99.90
2019-02-24T20:17:47.455Z,99.90
2019-02-24T20:20:16.986Z,99.90
2019-02-24T20:22:45.896Z,99.90
2019-02-24T20:25:19.244Z,99.90
2019-02-24T20:27:47.824Z,99.90
2019-02-24T20:30:22.274Z,99.90
2019-02-24T20:32:50.915Z,99.90
2019-02-24T20:35:19.678Z,99.90
2019-02-24T20:37:48.316Z,99.90
2019-02-24T20:40:17.026Z,99.90
2019-02-24T20:42:45.610Z,99.90
2019-02-24T20:45:19.826Z,99.90
2019-02-24T20:47:48.739Z,99.90
2019-02-24T20:50:19.995Z,99.90
2019-02-24T20:52:48.478Z,99.90
2019-02-24T20:55:17.070Z,99.90
2019-02-24T20:57:45.608Z,99.90
2019-02-24T21:00:17.322Z,99.90
2019-02-24T21:02:45.909Z,99.90
2019-02-24T21:05:14.944Z,99.90
2019-02-24T21:07:43.529Z,99.90
2019-02-24T21:10:13.715Z,99.90
2019-02-24T21:12:42.536Z,99.90
2019-02-24T21:15:14.030Z,99.90
2019-02-24T21:17:42.583Z,99.90
2019-02-24T21:20:14.210Z,99.90
2019-02-24T21:22:42.789Z,99.90
2019-02-24T21:25:11.471Z,99.90
2019-02-24T21:27:39.970Z,99.90
2019-02-24T21:30:11.843Z,99.90
2019-02-24T21:32:40.390Z,99.90
2019-02-24T21:35:10.218Z,99.90
2019-02-24T21:37:39.109Z,99.90
2019-02-24T21:40:10.522Z,99.90
2019-02-24T21:42:39.465Z,99.90
2019-02-24T21:45:26.013Z,99.90
2019-02-24T21:47:54.658Z,99.90
2019-02-24T21:50:23.214Z,99.90
2019-02-24T21:52:51.865Z,99.90
2019-02-24T21:55:20.506Z,99.90
2019-02-24T21:57:49.075Z,99.90
2019-02-24T22:00:20.162Z,99.90
2019-02-24T22:02:48.809Z,99.90
2019-02-24T22:05:17.498Z,99.90
2019-02-24T22:07:46.085Z,99.90
2019-02-24T22:10:16.269Z,99.90
2019-02-24T22:12:44.989Z,99.90
2019-02-24T22:15:19.174Z,99.90
2019-02-24T22:17:47.724Z,99.90
2019-02-24T22:20:16.770Z,99.90
2019-02-24T22:22:45.603Z,99.90
2019-02-24T22:25:15.408Z,99.90
2019-02-24T22:27:44.257Z,99.90
2019-02-24T22:30:18.049Z,99.90
2019-02-24T22:32:46.594Z,99.90
2019-02-24T22:35:15.278Z,99.90
2019-02-24T22:37:43.886Z,99.90
2019-02-24T22:40:16.946Z,99.90
2019-02-24T22:42:46.722Z,99.90
2019-02-24T22:45:21.551Z,99.90
2019-02-24T22:47:50.526Z,99.90
2019-02-24T22:50:19.502Z,99.90
2019-02-24T22:52:48.316Z,99.90
2019-02-24T22:55:18.226Z,99.90
2019-02-24T22:57:47.059Z,99.90
2019-02-24T23:00:53.524Z,99.90
2019-02-24T23:03:24.613Z,99.90
2019-02-24T23:05:53.299Z,99.90
2019-02-24T23:08:21.890Z,99.90
2019-02-24T23:10:51.584Z,99.90
2019-02-24T23:13:20.487Z,99.90
2019-02-24T23:15:49.325Z,99.90
2019-02-24T23:18:17.899Z,99.90
2019-02-24T23:20:46.544Z,99.90
2019-02-24T23:23:15.111Z,99.90
2019-02-24T23:25:43.733Z,99.90
2019-02-24T23:28:12.259Z,99.90
2019-02-24T23:30:40.883Z,99.90
2019-02-24T23:33:09.529Z,99.90
2019-02-24T23:35:38.126Z,99.90
2019-02-24T23:38:06.675Z,99.90
2019-02-24T23:40:35.251Z,99.90
2019-02-24T23:43:03.949Z,99.90
2019-02-24T23:45:32.855Z,99.90
2019-02-24T23:48:01.448Z,99.90
2019-02-24T23:50:30.011Z,99.90
2019-02-24T23:52:58.564Z,99.90
2019-02-24T23:55:27.161Z,99.90
2019-02-24T23:57:56.078Z,99.90
